Huntleigh, Missouri
Current Conditions -  °F | °C
As of 7:51 AM on Thursday 23 Oct 2014 (Local Time) from KSTL Reporting Station
Broken Clouds Broken Clouds  
Wind Chill: 49°   Ceiling: 25000
Heat Index: 49°   Visibility: 10mi
Dew Point: 41°   Wind: 3mph
Humidity: 74%   Direction: 170°S
Pressure: 30.21"   Gusts: NA
Location:  38.6172°N, 90.4443°W
Report Text: KSTL 231251Z 17003KT 10SM FEW150 SCT200 BKN250 09/05 A3021 RMK AO2 SLP230 VIRGA OHD T00940050
Loading
Personal Weather Stations






























Interactive Weather Map
Tropical Storm Tracking
New forecast layout! Learn more

10-Day Weather Forecast

Advertisements
Track Severe Weather on mobile